Loging...

KPDC, Korea Polar Data Center

Korea Polar Data Center Scientific observations and results from Antarctica shall
be exchanged and made freely available

Keyword Search

Advanced Search

Search 22,711 data out of 28,600

Metadata Search Results1
No. Title Reg. Date
1 [KOPRI-KPDC-00000893]XCTD in the Beaufort Sea 2018-04-03
2 [KOPRI-KPDC-00000558]XCTD data to observe the ACC polar front in the Southern Ocean in 2015 2015-10-12
3 [KOPRI-KPDC-00000261]XCTD Data surrounding Chukchi Borderland/Mendeleev Ridge in Arctic, 2012 2012-11-08
4 [KOPRI-KPDC-00000234]XCTD Data surrounding Chukchi Borderland and Mendeleev Ridge of Arctic in 2011 2012-07-12
5 [KOPRI-KPDC-00000238]XBT Data surrounding Amundsen Sea of Antarctic in 2011 2012-07-24
6 [KOPRI-KPDC-00001462]Wind data on ARAON DaDis for Arctic cruise, 2020 2020-10-04
7 [KOPRI-KPDC-00001396]Wind data on ARAON DaDis for Arctic cruise, 2019 2020-03-04
8 [KOPRI-KPDC-00001395]Wind data on ARAON DaDis for Arctic cruise, 2018 2019-11-12
9 [KOPRI-KPDC-00001394]Wind data on ARAON DaDis for Arctic cruise, 2017 2019-11-12
10 [KOPRI-KPDC-00001393]Wind data on ARAON DaDis for Arctic cruise, 2016 2019-11-12
11 [KOPRI-KPDC-00001392]Wind data on ARAON DaDis for Arctic cruise, 2015 2019-11-12
12 [KOPRI-KPDC-00001387]Wind data on ARAON DaDis for Arctic cruise, 2014 2019-11-12
13 [KOPRI-KPDC-00001388]Wind data on ARAON DaDis for Arctic cruise, 2013 2019-11-12
14 [KOPRI-KPDC-00001389]Wind data on ARAON DaDis for Arctic cruise, 2012 2019-11-12
15 [KOPRI-KPDC-00001390]Wind data on ARAON DaDis for Arctic cruise, 2011 2019-11-12
16 [KOPRI-KPDC-00001391]Wind data on ARAON DaDis for Arctic cruise, 2010 2019-11-12
17 [KOPRI-KPDC-00001444]Wind data on ARAON DaDis for Antarctic cruise, 2019/2020 2020-06-25
18 [KOPRI-KPDC-00001405]Wind data on ARAON DaDis for Antarctic cruise, 2018/2019 2019-11-12
19 [KOPRI-KPDC-00001419]Wind data on ARAON DaDis for Antarctic cruise, 2018/2019 2019-12-11
20 [KOPRI-KPDC-00001404]Wind data on ARAON DaDis for Antarctic cruise, 2017/2018 2019-11-12
21 [KOPRI-KPDC-00001403]Wind data on ARAON DaDis for Antarctic cruise, 2016/2017 2019-11-12
22 [KOPRI-KPDC-00001402]Wind data on ARAON DaDis for Antarctic cruise, 2015/2016 2019-11-12
23 [KOPRI-KPDC-00001401]Wind data on ARAON DaDis for Antarctic cruise, 2014/2015 2019-11-12
24 [KOPRI-KPDC-00001400]Wind data on ARAON DaDis for Antarctic cruise, 2013/2014 2019-11-12
25 [KOPRI-KPDC-00001399]Wind data on ARAON DaDis for Antarctic cruise, 2012/2013 2019-11-12
26 [KOPRI-KPDC-00001398]Wind data on ARAON DaDis for Antarctic cruise, 2011/2012 2019-11-12
27 [KOPRI-KPDC-00001397]Wind data on ARAON DaDis for Antarctic cruise, 2010/2011 2019-11-12
28 [KOPRI-KPDC-00001463]Weather data on ARAON DaDis for Arctic cruise, 2020 2020-10-04
29 [KOPRI-KPDC-00001386]Weather data on ARAON DaDis for Arctic cruise, 2019 2019-11-12
30 [KOPRI-KPDC-00001385]Weather data on ARAON DaDis for Arctic cruise, 2018 2019-11-12
31 [KOPRI-KPDC-00001384]Weather data on ARAON DaDis for Arctic cruise, 2017 2019-11-12
32 [KOPRI-KPDC-00001383]Weather data on ARAON DaDis for Arctic cruise, 2016 2019-11-12
33 [KOPRI-KPDC-00001443]Weather data on ARAON DaDis for Antarctic cruise, 2019/2020 2020-06-25
34 [KOPRI-KPDC-00001382]Weather data on ARAON DaDis for Antarctic cruise, 2018/2019 2019-11-12
35 [KOPRI-KPDC-00001381]Weather data on ARAON DaDis for Antarctic cruise, 2017/2018 2019-11-12
36 [KOPRI-KPDC-00001380]Weather data on ARAON DaDis for Antarctic cruise, 2016/2017 2019-11-12
37 [KOPRI-KPDC-00001027]WAP13-GC47 (Opal Silicate Analysis) 2018-10-10
38 [KOPRI-KPDC-00001251]Visible Infrared Imaging Radiometer Suite Arctic 2019-10-07
39 [KOPRI-KPDC-00001244]Visible Infrared Imaging Radiometer Suite Antarctic 2019-10-07
40 [KOPRI-KPDC-00001096]Visible Infrared Imaging Radiometer Suite 2018-10-22
41 [KOPRI-KPDC-00001095]Visible Infrared Imaging Radiometer Suite 2018-10-22
42 [KOPRI-KPDC-00001094]Visible Infrared Imaging Radiometer Suite 2018-10-22
43 [KOPRI-KPDC-00001093]Visible Infrared Imaging Radiometer Suite 2018-10-22
44 [KOPRI-KPDC-00000885]Vertical distributions of macromolecular composition of particulate organic matter in the water column of the Amundsen Sea Polynya during the summer in 2014 2017-12-28
45 [KOPRI-KPDC-00001084]Underway measurements of net community production in the Amudsen Sea 2018-10-16
46 [KOPRI-KPDC-00001083]Underway measurements of dimethylsulfide in the Amudsen Sea 2018-10-16
47 [KOPRI-KPDC-00001143]Underway measurements of CH4 and CO2 in the surface seawater and the atmosphere 2018-12-18
48 [KOPRI-KPDC-00001538]Underwater logger data in the coast of the Jang Bogo Station, Antarctica 2020-11-10
49 [KOPRI-KPDC-00001617]Underwater acoustic data in the East Siberian Sea from 2017 to 2018 2020-11-24
50 [KOPRI-KPDC-00000181]Trophic ecology of dominant Arctic zooplankton, 2010 2012-01-02
51 [KOPRI-KPDC-00001464]Thermosalinograph data on ARAON DaDis for Arctic cruise, 2020 2020-10-04
52 [KOPRI-KPDC-00001370]Thermosalinograph data on ARAON DaDis for Arctic cruise, 2019 2019-11-12
53 [KOPRI-KPDC-00001369]Thermosalinograph data on ARAON DaDis for Arctic cruise, 2018 2019-11-12
54 [KOPRI-KPDC-00001368]Thermosalinograph data on ARAON DaDis for Arctic cruise, 2017 2019-11-12
55 [KOPRI-KPDC-00001367]Thermosalinograph data on ARAON DaDis for Arctic cruise, 2016 2019-11-12
56 [KOPRI-KPDC-00001366]Thermosalinograph data on ARAON DaDis for Arctic cruise, 2015 2019-11-12
57 [KOPRI-KPDC-00001365]Thermosalinograph data on ARAON DaDis for Arctic cruise, 2014 2019-11-12
58 [KOPRI-KPDC-00001364]Thermosalinograph data on ARAON DaDis for Arctic cruise, 2013 2019-11-12
59 [KOPRI-KPDC-00001363]Thermosalinograph data on ARAON DaDis for Arctic cruise, 2012 2019-11-12
60 [KOPRI-KPDC-00001362]Thermosalinograph data on ARAON DaDis for Arctic cruise, 2011 2019-11-12
61 [KOPRI-KPDC-00001361]Thermosalinograph data on ARAON DaDis for Arctic cruise, 2010 2019-11-12
62 [KOPRI-KPDC-00001448]Thermosalinograph data on ARAON DaDis for Antarctic cruise, 2019/2020 2020-06-25
63 [KOPRI-KPDC-00001379]Thermosalinograph data on ARAON DaDis for Antarctic cruise, 2018/2019 2019-11-12
64 [KOPRI-KPDC-00001378]Thermosalinograph data on ARAON DaDis for Antarctic cruise, 2017/2018 2019-11-12
65 [KOPRI-KPDC-00001377]Thermosalinograph data on ARAON DaDis for Antarctic cruise, 2016/2017 2019-11-12
66 [KOPRI-KPDC-00001376]Thermosalinograph data on ARAON DaDis for Antarctic cruise, 2015/2016 2019-11-12
67 [KOPRI-KPDC-00001375]Thermosalinograph data on ARAON DaDis for Antarctic cruise, 2014/2015 2019-11-12
68 [KOPRI-KPDC-00001374]Thermosalinograph data on ARAON DaDis for Antarctic cruise, 2013/2014 2019-11-12
69 [KOPRI-KPDC-00001373]Thermosalinograph data on ARAON DaDis for Antarctic cruise, 2012/2013 2019-11-12
70 [KOPRI-KPDC-00001372]Thermosalinograph data on ARAON DaDis for Antarctic cruise, 2011/2012 2019-11-12
71 [KOPRI-KPDC-00001371]Thermosalinograph data on ARAON DaDis for Antarctic cruise, 2010/2011 2019-11-12
72 [KOPRI-KPDC-00000136]The Ocean Color and Temperature Scanner in Korea Peninsula, 1996-1997 2011-12-21
73 [KOPRI-KPDC-00000135]The Ocean Color and Temperature Scanner in Arctic, 1996-1997 2011-12-21
74 [KOPRI-KPDC-00000134]The Ocean Color and Temperature Scanner in Antarctica, 1996-1997 2011-12-21
75 [KOPRI-KPDC-00000667]Temporal variation of phytoplankton in the surface water of Marian Cove, King George Island, Antarctica, September 2015-August 2016 2016-10-31
76 [KOPRI-KPDC-00001594]Temporal variation of phytoplankton in the surface water of Marian Cove, King George Island, Antarctica, January 2020- October 2020 2020-11-13
77 [KOPRI-KPDC-00001429]Temporal variation of phytoplankton in the surface water of Marian Cove, King George Island, Antarctica, 2019 2020-11-13
78 [KOPRI-KPDC-00001182]Temporal variation of phytoplankton in the surface water of Marian Cove, King George Island, Antarctica, 2018 2020-11-13
79 [KOPRI-KPDC-00001183]Temporal variation of phytoplankton in the surface water of Marian Cove, King George Island, Antarctica, 2017 2019-09-26
80 [KOPRI-KPDC-00001030]Temporal variation of marine phytoplankton in the surface water of the Antarctic Jang Bogo Station in Terra Nova Bay, September 2017-September 2018 2018-10-10
81 [KOPRI-KPDC-00000820]Temporal variation of marine phytoplankton in the surface water of the Antarctic Jang Bogo Station in Terra Nova Bay, September 2016-August 2017 2017-10-12
82 [KOPRI-KPDC-00000655]Temporal variation of marine phytoplankton in the surface water of the Antarctic Jang Bogo Station in Terra Nova Bay, September 2015-August 2016 2016-10-26
83 [KOPRI-KPDC-00001428]Temporal variation of marine phytoplankton in the surface water of the Antarctic Jang Bogo Station in Terra Nova Bay, October 2018- December 2019 2020-11-13
84 [KOPRI-KPDC-00001501]Temporal variation of marine phytoplankton in the surface water of the Antarctic Jang Bogo Station in Terra Nova Bay, January 2020- September 2020 2020-11-13
85 [KOPRI-KPDC-00000545]Temporal variation of marine phytoplankton in the surface water of the Antarctic Jang Bogo Station in Terra Nova Bay, 2015 2015-10-08
86 [KOPRI-KPDC-00001053]Temporal variation of marine phytoplankton in the surface water of the Amundsen Sea in Antarctica, December 2017-February 2018 2018-10-10
87 [KOPRI-KPDC-00000544]Temporal variation of marine phytoplankton in the surface water of Marian Cove, King George Island, Antarctica, 2015 2015-10-08
88 [KOPRI-KPDC-00001422]Surface observation of CH4 in the atmosphere and ocean 2020-01-09
89 [KOPRI-KPDC-00000254]Sub-bottom profiler data of Chukchi sea in Arctic ocean, 2012 2012-10-18
90 [KOPRI-KPDC-00000661]Sub-bottom profiler data in the Ross Sea, Antarctica 2016 2016-10-27
91 [KOPRI-KPDC-00001000]Sub-bottom profile data in the Ross Sea, Antarctica 2018-10-04
92 [KOPRI-KPDC-00000092]Study on environment and phytoplankton communities in Kongsfjorden, 2007 2011-12-19
93 [KOPRI-KPDC-00000091]Study on environment and phytoplankton communities in Kongsfjorden, 2006 2011-12-19
94 [KOPRI-KPDC-00000081]Structure of phytoplankton communities in Okhotsk Sea, 2005 2011-12-17
95 [KOPRI-KPDC-00000082]Structure of phytoplankton communities in Kara Sea, 2005 2011-12-17
96 [KOPRI-KPDC-00000086]Structure of phytoplankton communities in Chukchi Sea and Canadian Basin, 2009 2011-12-19
97 [KOPRI-KPDC-00000085]Structure of phytoplankton communities in Bering Sea, Chukchi Sea, and Canadian Basin, 2008 2011-12-19
98 [KOPRI-KPDC-00000084]Structure of phytoplankton communities in Bering Sea and Chukchi Sea, 2007 2011-12-17
99 [KOPRI-KPDC-00000083]Structure of phytoplankton communities in Bering Sea, 2006 2011-12-17
100 [KOPRI-KPDC-00000080]Structure of phytoplankton communities in Barents Sea, 2004 2011-12-17